| time (UTC) | temp C | wind direction | speed KPH | gust KPH | rain 1hr cm | rain 24hr cm | rain mn cm | humidity % | barometer mb |
| 20260507023603 | 18 | 277 | 3.2 | 11.3 | 0.00 | 0.00 | 0.00 | 72 | 1018.7 |
| 20260507022703 | 18 | 286 | 4.8 | 14.5 | 0.00 | 0.00 | 0.00 | 69 | 1018.7 |
| 20260507022016 | 18 | 292 | 4.8 | 12.9 | 0.00 | 0.00 | 0.00 | 68 | 1018.7 |
| 20260507020903 | 19 | 298 | 6.4 | 12.9 | 0.00 | 0.00 | 0.00 | 66 | 1018.3 |
| 20260507020003 | 20 | 273 | 4.8 | 12.9 | 0.00 | 0.00 | 0.00 | 65 | 1018.3 |
| 20260507015404 | 20 | 264 | 4.8 | 12.9 | 0.00 | 0.00 | 0.00 | 67 | 1018.3 |
| 20260507014718 | 20 | 280 | 6.4 | 17.7 | 0.00 | 0.00 | 0.00 | 65 | 1018.3 |
| 20260507013603 | 20 | 266 | 8.0 | 17.7 | 0.00 | 0.00 | 0.00 | 64 | 1018.3 |
| 20260507012919 | 20 | 261 | 6.4 | 17.7 | 0.00 | 0.00 | 0.00 | 62 | 1018.0 |
| 20260507011803 | 20 | 283 | 6.4 | 22.5 | 0.00 | 0.00 | 0.00 | 61 | 1018.0 |
| 20260507010903 | 20 | 264 | 8.0 | 20.9 | 0.00 | 0.00 | 0.00 | 60 | 1018.0 |
| 20260507010003 | 21 | 280 | 8.0 | 20.9 | 0.00 | 0.00 | 0.00 | 61 | 1018.0 |
| 20260507005403 | 21 | 270 | 8.0 | 17.7 | 0.00 | 0.00 | 0.00 | 62 | 1018.0 |
| 20260507004504 | 20 | 282 | 8.0 | 17.7 | 0.00 | 0.00 | 0.00 | 63 | 1018.0 |
| 20260507003603 | 21 | 277 | 8.0 | 19.3 | 0.00 | 0.00 | 0.00 | 62 | 1018.0 |
| 20260507002703 | 21 | 274 | 8.0 | 19.3 | 0.00 | 0.00 | 0.00 | 60 | 1018.0 |
| 20260507001803 | 21 | 284 | 8.0 | 17.7 | 0.00 | 0.00 | 0.00 | 61 | 1017.6 |
| 20260507000903 | 21 | 266 | 8.0 | 20.9 | 0.00 | 0.00 | 0.00 | 59 | 1017.6 |
| 20260507000219 | 21 | 273 | 8.0 | 20.9 | 0.00 | 0.00 | 0.00 | 61 | 1017.6 |
| 20260506235403 | 22 | 289 | 8.0 | 17.7 | 0.00 | 0.00 | 0.00 | 59 | 1017.6 |
| 20260506234503 | 21 | 284 | 8.0 | 19.3 | 0.00 | 0.00 | 0.00 | 60 | 1017.6 |
| 20260506233817 | 21 | 285 | 8.0 | 22.5 | 0.00 | 0.00 | 0.00 | 60 | 1017.6 |
| 20260506232703 | 22 | 263 | 9.7 | 22.5 | 0.00 | 0.00 | 0.00 | 60 | 1018.0 |
| 20260506231803 | 22 | 272 | 8.0 | 19.3 | 0.00 | 0.00 | 0.00 | 59 | 1018.0 |
| 20260506230904 | 22 | 258 | 6.4 | 17.7 | 0.00 | 0.00 | 0.00 | 58 | 1018.0 |
| 20260506230003 | 22 | 271 | 8.0 | 20.9 | 0.00 | 0.00 | 0.00 | 59 | 1018.0 |
| 20260506225403 | 22 | 268 | 6.4 | 17.7 | 0.00 | 0.00 | 0.00 | 59 | 1018.0 |
| 20260506224503 | 22 | 266 | 8.0 | 19.3 | 0.00 | 0.00 | 0.00 | 57 | 1018.3 |
| 20260506223818 | 22 | 265 | 8.0 | 19.3 | 0.00 | 0.00 | 0.00 | 58 | 1018.0 |
| 20260506222918 | 22 | 253 | 6.4 | 24.1 | 0.00 | 0.00 | 0.00 | 56 | 1018.3 |
| 20260506221803 | 22 | 274 | 8.0 | 24.1 | 0.00 | 0.00 | 0.00 | 56 | 1018.3 |
| 20260506221118 | 22 | 253 | 8.0 | 24.1 | 0.00 | 0.00 | 0.00 | 55 | 1018.3 |
| 20260506220003 | 23 | 273 | 6.4 | 16.1 | 0.00 | 0.00 | 0.00 | 56 | 1018.7 |
| 20260506215404 | 22 | 269 | 6.4 | 17.7 | 0.00 | 0.00 | 0.00 | 56 | 1018.7 |
| 20260506214503 | 23 | 270 | 6.4 | 17.7 | 0.00 | 0.00 | 0.00 | 55 | 1018.7 |
| 20260506213818 | 22 | 251 | 8.0 | 19.3 | 0.00 | 0.00 | 0.00 | 58 | 1018.7 |
| 20260506212703 | 22 | 210 | 6.4 | 20.9 | 0.00 | 0.00 | 0.00 | 54 | 1018.7 |
| 20260506211803 | 22 | 227 | 8.0 | 25.7 | 0.00 | 0.00 | 0.00 | 56 | 1018.7 |
| 20260506210903 | 22 | 188 | 6.4 | 16.1 | 0.00 | 0.00 | 0.00 | 54 | 1019.0 |
| 20260506210003 | 23 | 237 | 4.8 | 19.3 | 0.00 | 0.00 | 0.00 | 54 | 1019.0 |
| 20260506205617 | 22 | 254 | 6.4 | 19.3 | 0.00 | 0.00 | 0.00 | 54 | 1019.0 |
| 20260506204718 | 23 | 241 | 4.8 | 16.1 | 0.00 | 0.00 | 0.00 | 54 | 1019.0 |
| 20260506203603 | 23 | 249 | 4.8 | 16.1 | 0.00 | 0.00 | 0.00 | 55 | 1019.0 |
| 20260506202703 | 23 | 192 | 6.4 | 16.1 | 0.00 | 0.00 | 0.00 | 55 | 1019.3 |
| 20260506202018 | 22 | 200 | 6.4 | 16.1 | 0.00 | 0.00 | 0.00 | 57 | 1019.3 |
| 20260506200903 | 23 | 171 | 6.4 | 12.9 | 0.00 | 0.00 | 0.00 | 55 | 1019.3 |
| 20260506200003 | 22 | 172 | 6.4 | 14.5 | 0.00 | 0.00 | 0.00 | 55 | 1019.3 |
| 20260506195403 | 22 | 206 | 6.4 | 17.7 | 0.00 | 0.00 | 0.00 | 56 | 1019.7 |
| 20260506194504 | 22 | 137 | 8.0 | 16.1 | 0.00 | 0.00 | 0.00 | 57 | 1019.7 |
| 20260506193603 | 23 | 160 | 4.8 | 16.1 | 0.00 | 0.00 | 0.00 | 55 | 1019.7 |
| 20260506192703 | 22 | 235 | 4.8 | 16.1 | 0.00 | 0.00 | 0.00 | 56 | 1020.0 |
| 20260506191803 | 22 | 102 | 3.2 | 9.7 | 0.00 | 0.00 | 0.00 | 55 | 1020.0 |
| 20260506190904 | 21 | 142 | 6.4 | 16.1 | 0.00 | 0.00 | 0.00 | 55 | 1020.0 |
| 20260506190003 | 22 | 145 | 6.4 | 16.1 | 0.00 | 0.00 | 0.00 | 55 | 1020.0 |
| 20260506185404 | 21 | 137 | 4.8 | 12.9 | 0.00 | 0.00 | 0.00 | 56 | 1020.4 |
| 20260506184503 | 21 | 102 | 4.8 | 12.9 | 0.00 | 0.00 | 0.00 | 57 | 1020.4 |
| 20260506183603 | 21 | 122 | 4.8 | 12.9 | 0.00 | 0.00 | 0.00 | 56 | 1020.4 |
| 20260506182704 | 22 | 164 | 3.2 | 9.7 | 0.00 | 0.00 | 0.00 | 55 | 1020.4 |
| 20260506181803 | 20 | 209 | 3.2 | 9.7 | 0.00 | 0.00 | 0.00 | 58 | 1020.4 |
| 20260506180903 | 21 | 160 | 3.2 | 9.7 | 0.00 | 0.00 | 0.00 | 58 | 1020.7 |
| 20260506180005 | 20 | 113 | 4.8 | 14.5 | 0.00 | 0.00 | 0.00 | 58 | 1020.4 |
| 20260506175403 | 20 | 140 | 6.4 | 14.5 | 0.00 | 0.00 | 0.00 | 60 | 1020.7 |
| 20260506174717 | 20 | 190 | 3.2 | 12.9 | 0.00 | 0.00 | 0.00 | 61 | 1020.7 |
| 20260506173603 | 18 | 190 | 4.8 | 11.3 | 0.00 | 0.00 | 0.00 | 64 | 1021.0 |
| 20260506172703 | 20 | 122 | 4.8 | 9.7 | 0.00 | 0.00 | 0.00 | 62 | 1020.7 |
| 20260506171804 | 18 | 134 | 3.2 | 9.7 | 0.00 | 0.00 | 0.00 | 65 | 1020.7 |
| 20260506170903 | 18 | 296 | 1.6 | 6.4 | 0.00 | 0.00 | 0.00 | 67 | 1020.7 |
| 20260506170003 | 18 | 117 | 4.8 | 11.3 | 0.00 | 0.00 | 0.00 | 67 | 1020.4 |
| 20260506165403 | 20 | 113 | 3.2 | 8.0 | 0.00 | 0.00 | 0.00 | 64 | 1020.7 |
| 20260506164717 | 19 | 113 | 4.8 | 9.7 | 0.00 | 0.00 | 0.00 | 65 | 1020.4 |
| 20260506163603 | 18 | 103 | 3.2 | 11.3 | 0.00 | 0.00 | 0.00 | 67 | 1020.7 |
| 20260506162703 | 18 | 176 | 1.6 | 6.4 | 0.00 | 0.00 | 0.00 | 67 | 1020.7 |
| 20260506161803 | 18 | 145 | 4.8 | 11.3 | 0.00 | 0.00 | 0.00 | 70 | 1020.7 |
| 20260506160903 | 18 | 112 | 4.8 | 9.7 | 0.00 | 0.00 | 0.00 | 69 | 1020.7 |
| 20260506160217 | 17 | 107 | 6.4 | 14.5 | 0.00 | 0.00 | 0.00 | 72 | 1020.7 |
| 20260506155403 | 18 | 103 | 4.8 | 12.9 | 0.00 | 0.00 | 0.00 | 73 | 1020.7 |
| 20260506154503 | 17 | 124 | 4.8 | 12.9 | 0.00 | 0.00 | 0.00 | 76 | 1020.7 |
| 20260506153603 | 16 | 103 | 4.8 | 9.7 | 0.00 | 0.00 | 0.00 | 78 | 1020.7 |
| 20260506152703 | 17 | 126 | 3.2 | 9.7 | 0.00 | 0.00 | 0.00 | 78 | 1021.0 |
| 20260506151803 | 16 | 102 | 4.8 | 9.7 | 0.00 | 0.00 | 0.00 | 79 | 1020.7 |
| 20260506151117 | 16 | 91 | 4.8 | 8.0 | 0.00 | 0.00 | 0.00 | 79 | 1021.0 |
| 20260506150003 | 16 | 70 | 4.8 | 9.7 | 0.00 | 0.00 | 0.00 | 80 | 1020.7 |
| 20260506145403 | 16 | 77 | 4.8 | 9.7 | 0.00 | 0.00 | 0.00 | 79 | 1020.7 |
| 20260506144718 | 16 | 74 | 4.8 | 9.7 | 0.00 | 0.00 | 0.00 | 80 | 1020.7 |
| 20260506143603 | 15 | 63 | 4.8 | 8.0 | 0.00 | 0.00 | 0.00 | 81 | 1020.7 |
| 20260506142703 | 15 | 64 | 4.8 | 9.7 | 0.00 | 0.00 | 0.00 | 82 | 1020.7 |
| 20260506142018 | 15 | 81 | 4.8 | 8.0 | 0.00 | 0.00 | 0.00 | 82 | 1020.7 |
| 20260506140903 | 14 | 73 | 4.8 | 9.7 | 0.00 | 0.00 | 0.00 | 83 | 1020.4 |
| 20260506140216 | 13 | 74 | 4.8 | 9.7 | 0.00 | 0.00 | 0.00 | 83 | 1020.4 |
| 20260506135403 | 13 | 64 | 4.8 | 8.0 | 0.00 | 0.00 | 0.00 | 83 | 1020.0 |
| 20260506134504 | 13 | 39 | 4.8 | 8.0 | 0.00 | 0.00 | 0.00 | 86 | 1020.4 |
| 20260506133603 | 12 | 65 | 3.2 | 6.4 | 0.00 | 0.00 | 0.00 | 88 | 1020.4 |
| 20260506132703 | 12 | 64 | 3.2 | 6.4 | 0.00 | 0.00 | 0.00 | 90 | 1020.4 |
| 20260506131803 | 11 | 35 | 4.8 | 9.7 | 0.00 | 0.00 | 0.00 | 92 | 1020.4 |
| 20260506130903 | 11 | 50 | 3.2 | 8.0 | 0.00 | 0.00 | 0.00 | 93 | 1020.0 |
| 20260506130003 | 11 | 51 | 3.2 | 6.4 | 0.00 | 0.00 | 0.00 | 93 | 1020.0 |
| 20260506125403 | 11 | 56 | 3.2 | 6.4 | 0.00 | 0.00 | 0.00 | 93 | 1020.0 |
| 20260506124503 | 11 | 101 | 3.2 | 6.4 | 0.00 | 0.00 | 0.00 | 94 | 1019.7 |
| 20260506123603 | 11 | 73 | 1.6 | 6.4 | 0.00 | 0.00 | 0.00 | 94 | 1019.3 |
| 20260506122703 | 11 | 95 | 3.2 | 6.4 | 0.00 | 0.00 | 0.00 | 93 | 1019.7 |
| 20260506121803 | 12 | 107 | 1.6 | 6.4 | 0.00 | 0.00 | 0.00 | 92 | 1019.7 |
| 20260506120903 | 12 | 89 | 3.2 | 6.4 | 0.00 | 0.00 | 0.00 | 92 | 1019.7 |
| 20260506120003 | 12 | 101 | 3.2 | 6.4 | 0.00 | 0.00 | 0.00 | 92 | 1019.7 |
| 20260506115403 | 12 | 65 | 3.2 | 6.4 | 0.00 | 0.00 | 0.00 | 91 | 1019.7 |
| 20260506114717 | 12 | 75 | 1.6 | 6.4 | 0.00 | 0.00 | 0.00 | 91 | 1019.7 |
| 20260506113603 | 12 | 84 | 3.2 | 3.2 | 0.00 | 0.00 | 0.00 | 91 | 1019.3 |
| 20260506112703 | 12 | 86 | 3.2 | 6.4 | 0.00 | 0.00 | 0.00 | 90 | 1019.3 |
| 20260506111803 | 13 | 89 | 3.2 | 8.0 | 0.00 | 0.00 | 0.00 | 90 | 1019.3 |
| 20260506111118 | 13 | 90 | 4.8 | 8.0 | 0.00 | 0.00 | 0.00 | 90 | 1019.3 |
| 20260506110003 | 13 | 90 | 3.2 | 6.4 | 0.00 | 0.00 | 0.00 | 90 | 1019.0 |
| 20260506105403 | 13 | 86 | 3.2 | 4.8 | 0.00 | 0.00 | 0.00 | 91 | 1019.3 |
| 20260506104504 | 12 | 97 | 3.2 | 6.4 | 0.00 | 0.00 | 0.00 | 91 | 1019.3 |
| 20260506103603 | 12 | 90 | 3.2 | 4.8 | 0.00 | 0.00 | 0.00 | 90 | 1019.3 |
| 20260506102703 | 13 | 85 | 3.2 | 4.8 | 0.00 | 0.00 | 0.00 | 90 | 1019.3 |
| 20260506102019 | 13 | 78 | 3.2 | 4.8 | 0.00 | 0.00 | 0.00 | 90 | 1019.3 |
| 20260506100903 | 13 | 86 | 3.2 | 4.8 | 0.00 | 0.00 | 0.00 | 89 | 1019.3 |
| 20260506100003 | 13 | 89 | 3.2 | 4.8 | 0.00 | 0.00 | 0.00 | 89 | 1019.3 |
| 20260506095403 | 13 | 83 | 3.2 | 4.8 | 0.00 | 0.00 | 0.00 | 89 | 1019.3 |
| 20260506094503 | 13 | 78 | 3.2 | 4.8 | 0.00 | 0.00 | 0.00 | 89 | 1019.3 |
| 20260506093604 | 13 | 75 | 3.2 | 4.8 | 0.00 | 0.00 | 0.00 | 89 | 1019.7 |
| 20260506092703 | 13 | 69 | 1.6 | 3.2 | 0.00 | 0.00 | 0.00 | 89 | 1019.7 |
| 20260506091803 | 13 | 85 | 3.2 | 4.8 | 0.00 | 0.00 | 0.00 | 89 | 1019.7 |
| 20260506090903 | 13 | 69 | 3.2 | 4.8 | 0.00 | 0.00 | 0.00 | 89 | 1019.7 |
| 20260506090217 | 13 | 70 | 3.2 | 4.8 | 0.00 | 0.00 | 0.00 | 89 | 1019.7 |
| 20260506085403 | 13 | 69 | 3.2 | 4.8 | 0.00 | 0.00 | 0.00 | 89 | 1019.7 |
| 20260506084503 | 13 | 93 | 3.2 | 4.8 | 0.00 | 0.00 | 0.00 | 89 | 1019.7 |
| 20260506083603 | 13 | 89 | 3.2 | 4.8 | 0.00 | 0.00 | 0.00 | 88 | 1019.7 |
| 20260506082703 | 13 | 96 | 3.2 | 4.8 | 0.00 | 0.00 | 0.00 | 88 | 1020.0 |
| 20260506081803 | 13 | 98 | 3.2 | 4.8 | 0.00 | 0.00 | 0.00 | 88 | 1019.7 |
| 20260506080903 | 13 | 101 | 3.2 | 6.4 | 0.00 | 0.00 | 0.00 | 87 | 1020.0 |
| 20260506072703 | 14 | 108 | 4.8 | 6.4 | 0.00 | 0.00 | 0.00 | 82 | 1020.0 |
| 20260506071803 | 14 | 108 | 3.2 | 6.4 | 0.00 | 0.00 | 0.00 | 82 | 1020.0 |
| 20260506070903 | 14 | 99 | 3.2 | 4.8 | 0.00 | 0.00 | 0.00 | 80 | 1019.7 |
| 20260506062017 | 13 | 101 | 1.6 | 3.2 | 0.00 | 0.00 | 0.00 | 82 | 1019.3 |
| 20260506060904 | 13 | 103 | 0.0 | 3.2 | 0.00 | 0.00 | 0.00 | 82 | 1019.3 |
| 20260506060218 | 14 | 77 | 0.0 | 3.2 | 0.00 | 0.00 | 0.00 | 80 | 1019.3 |
| 20260506050903 | 15 | 130 | 0.0 | 3.2 | 0.00 | 0.00 | 0.00 | 77 | 1019.0 |
| 20260506044503 | 15 | 148 | 0.0 | 3.2 | 0.00 | 0.00 | 0.00 | 77 | 1018.7 |
| 20260506043603 | 15 | 146 | 0.0 | 3.2 | 0.00 | 0.00 | 0.00 | 76 | 1018.7 |
| 20260506042703 | 15 | 139 | 0.0 | 3.2 | 0.00 | 0.00 | 0.00 | 76 | 1018.3 |
| 20260506041803 | 15 | 114 | 0.0 | 1.6 | 0.00 | 0.00 | 0.00 | 75 | 1018.3 |
| 20260506040903 | 16 | 313 | 0.0 | 3.2 | 0.00 | 0.00 | 0.00 | 73 | 1018.3 |
| 20260506040003 | 16 | 42 | 0.0 | 3.2 | 0.00 | 0.00 | 0.00 | 72 | 1018.0 |
| 20260506035403 | 16 | 246 | 0.0 | 3.2 | 0.00 | 0.00 | 0.00 | 71 | 1018.0 |
| 20260506034503 | 16 | 267 | 1.6 | 4.8 | 0.00 | 0.00 | 0.00 | 70 | 1018.0 |
| 20260506033603 | 16 | 266 | 1.6 | 4.8 | 0.00 | 0.00 | 0.00 | 70 | 1018.0 |
| 20260506032703 | 16 | 258 | 1.6 | 8.0 | 0.00 | 0.00 | 0.00 | 69 | 1017.6 |
| 20260506031803 | 16 | 265 | 3.2 | 8.0 | 0.00 | 0.00 | 0.00 | 70 | 1017.6 |
| 20260506030903 | 16 | 260 | 1.6 | 6.4 | 0.00 | 0.00 | 0.00 | 69 | 1017.6 |
| 20260506030003 | 17 | 267 | 1.6 | 8.0 | 0.00 | 0.00 | 0.00 | 66 | 1017.6 |
| 20260506025403 | 17 | 273 | 3.2 | 8.0 | 0.00 | 0.00 | 0.00 | 65 | 1017.3 |
| 20260506024503 | 17 | 251 | 1.6 | 6.4 | 0.00 | 0.00 | 0.00 | 62 | 1017.0 |